createdAt,value
2024-01-12T00:00:17.960Z,31.15
2024-01-12T00:03:20.330Z,28.70
2024-01-12T00:06:22.832Z,37.03
2024-01-12T00:09:25.300Z,37.70
2024-01-12T00:12:27.656Z,30.35
2024-01-12T00:15:30.079Z,31.02
2024-01-12T00:18:32.616Z,33.13
2024-01-12T00:21:35.088Z,27.08
2024-01-12T00:24:37.465Z,30.35
2024-01-12T00:27:39.937Z,32.97
2024-01-12T00:30:42.790Z,31.77
2024-01-12T00:33:45.413Z,26.25
2024-01-12T00:36:49.324Z,29.73
2024-01-12T00:39:51.734Z,28.70
2024-01-12T00:42:54.148Z,20.23
2024-01-12T00:45:56.621Z,32.72
2024-01-12T00:48:59.423Z,25.30
2024-01-12T00:52:02.141Z,22.90
2024-01-12T00:55:04.981Z,31.35
2024-01-12T00:58:07.369Z,30.03
2024-01-12T01:01:10.918Z,33.20
2024-01-12T01:04:13.587Z,25.63
2024-01-12T01:07:16.123Z,26.43
2024-01-12T01:10:18.517Z,30.20
2024-01-12T01:13:21.003Z,30.13
2024-01-12T01:16:25.072Z,28.40
2024-01-12T01:19:27.620Z,36.85
2024-01-12T01:22:32.896Z,35.80
2024-01-12T01:25:37.103Z,27.13
2024-01-12T01:28:39.583Z,26.70
2024-01-12T01:31:41.998Z,36.35
2024-01-12T01:34:44.938Z,30.73
2024-01-12T01:37:47.455Z,28.83
2024-01-12T01:40:49.928Z,25.42
2024-01-12T01:43:52.490Z,34.20
2024-01-12T01:47:00.204Z,20.98
2024-01-12T01:50:03.127Z,31.90
2024-01-12T01:53:06.220Z,29.45
2024-01-12T01:56:10.830Z,32.45
2024-01-12T01:59:13.875Z,37.63
2024-01-12T02:02:16.738Z,19.83
2024-01-12T02:05:19.958Z,35.35
2024-01-12T02:08:22.591Z,27.60
2024-01-12T02:11:25.042Z,34.55
2024-01-12T02:14:27.531Z,32.85
2024-01-12T02:17:30.059Z,24.48
2024-01-12T02:20:32.561Z,27.30
2024-01-12T02:23:35.092Z,26.15
2024-01-12T02:26:37.664Z,31.83
2024-01-12T02:29:40.296Z,28.43
2024-01-12T02:32:42.748Z,25.08
2024-01-12T02:35:45.443Z,34.05
2024-01-12T02:38:51.396Z,32.27
2024-01-12T02:41:58.522Z,40.22
2024-01-12T02:45:01.054Z,27.65
2024-01-12T02:48:04.112Z,39.83
2024-01-12T02:51:07.719Z,32.65
2024-01-12T02:54:10.228Z,33.65
2024-01-12T02:57:13.709Z,34.28
2024-01-12T03:00:16.520Z,27.90
2024-01-12T03:03:20.010Z,23.42
2024-01-12T03:06:22.714Z,29.27
2024-01-12T03:09:25.153Z,28.13
2024-01-12T03:12:27.585Z,31.30
2024-01-12T03:15:30.535Z,27.10
2024-01-12T03:18:33.519Z,16.55
2024-01-12T03:21:36.108Z,37.10
2024-01-12T03:24:38.543Z,17.00
2024-01-12T03:27:41.019Z,25.17
2024-01-12T03:30:43.467Z,31.27
2024-01-12T03:33:46.082Z,33.22
2024-01-12T03:36:48.655Z,24.63
2024-01-12T03:39:51.336Z,23.77
2024-01-12T03:42:53.772Z,31.23
2024-01-12T03:45:56.167Z,26.40
2024-01-12T03:48:58.686Z,26.00
2024-01-12T03:52:14.571Z,29.30
2024-01-12T03:55:18.813Z,17.88
2024-01-12T03:58:21.222Z,32.80
2024-01-12T04:01:24.306Z,29.60
2024-01-12T04:04:26.908Z,26.67
2024-01-12T04:07:29.312Z,23.73
2024-01-12T04:10:31.895Z,28.00
2024-01-12T04:13:34.323Z,28.88
2024-01-12T04:16:36.829Z,31.70
2024-01-12T04:19:39.339Z,25.67
2024-01-12T04:22:41.860Z,26.67
2024-01-12T04:25:44.349Z,21.17
2024-01-12T04:28:47.064Z,26.13
2024-01-12T04:31:49.617Z,33.53
2024-01-12T04:34:52.095Z,23.83
2024-01-12T04:37:54.558Z,21.83
2024-01-12T04:40:56.982Z,29.53
2024-01-12T04:43:59.569Z,15.07
2024-01-12T04:47:01.958Z,20.13
2024-01-12T04:50:04.668Z,11.75
2024-01-12T04:53:07.606Z,16.92
2024-01-12T04:56:10.029Z,10.80
2024-01-12T04:59:12.474Z,5.25
2024-01-12T05:02:15.006Z,12.20
2024-01-12T05:05:17.497Z,13.30
2024-01-12T05:08:20.016Z,12.93
2024-01-12T05:11:23.504Z,9.17
2024-01-12T05:14:27.440Z,11.38
2024-01-12T05:17:29.927Z,9.75
2024-01-12T05:20:32.394Z,9.80
2024-01-12T05:23:34.989Z,11.63
2024-01-12T05:26:37.823Z,7.68
2024-01-12T05:29:40.315Z,11.90
2024-01-12T05:32:42.897Z,14.53
2024-01-12T05:35:45.699Z,13.10
2024-01-12T05:38:48.206Z,12.93
2024-01-12T05:41:50.779Z,8.23
2024-01-12T05:44:53.241Z,10.68
2024-01-12T05:47:56.043Z,12.95
2024-01-12T05:50:58.580Z,11.27
2024-01-12T05:54:01.101Z,8.80
2024-01-12T05:57:03.969Z,13.35
2024-01-12T06:00:09.174Z,10.27
2024-01-12T06:03:11.740Z,12.10
2024-01-12T06:06:14.370Z,14.15
2024-01-12T06:09:16.916Z,11.60
2024-01-12T06:12:19.333Z,10.97
2024-01-12T06:15:21.961Z,12.20
2024-01-12T06:18:24.612Z,12.68
2024-01-12T06:21:27.353Z,10.98
2024-01-12T06:24:29.821Z,11.75
2024-01-12T06:27:32.234Z,13.23
2024-01-12T06:30:34.670Z,13.77
2024-01-12T06:33:37.103Z,18.43
2024-01-12T06:36:45.480Z,19.48
2024-01-12T06:39:48.040Z,23.23
2024-01-12T06:42:50.472Z,28.13
2024-01-12T06:45:52.856Z,24.92
2024-01-12T06:48:55.286Z,23.60
2024-01-12T06:51:57.761Z,22.65
2024-01-12T06:55:00.606Z,27.08
2024-01-12T06:58:03.163Z,25.48
2024-01-12T07:01:05.645Z,20.10
2024-01-12T07:04:08.654Z,25.60
2024-01-12T07:07:12.061Z,12.95
2024-01-12T07:10:14.588Z,12.75
2024-01-12T07:13:17.005Z,16.40
2024-01-12T07:16:19.378Z,18.23
2024-01-12T07:19:21.968Z,18.88
2024-01-12T07:22:24.425Z,14.73
2024-01-12T07:25:26.854Z,18.42
2024-01-12T07:28:29.376Z,17.45
2024-01-12T07:31:32.412Z,17.25
2024-01-12T07:34:34.907Z,31.10
2024-01-12T07:37:38.072Z,22.17
2024-01-12T07:40:40.540Z,17.15
2024-01-12T07:43:43.009Z,22.93
2024-01-12T07:46:45.431Z,22.33
2024-01-12T07:49:49.020Z,11.90
2024-01-12T07:52:51.876Z,12.73
2024-01-12T07:55:54.847Z,5.63
2024-01-12T07:58:59.026Z,10.45
2024-01-12T08:02:02.590Z,6.43
2024-01-12T08:05:09.570Z,6.43
2024-01-12T08:08:12.323Z,6.65
2024-01-12T08:11:26.685Z,4.07
2024-01-12T08:14:34.452Z,3.80
2024-01-12T08:17:40.717Z,17.90
2024-01-12T08:20:43.745Z,5.30
2024-01-12T08:23:46.223Z,10.45
2024-01-12T08:26:49.155Z,26.42
2024-01-12T08:29:51.814Z,6.18
2024-01-12T08:32:54.392Z,7.32
2024-01-12T08:35:56.899Z,2.73
2024-01-12T08:38:59.355Z,5.10
2024-01-12T08:42:01.898Z,7.90
2024-01-12T08:45:05.613Z,2.23
2024-01-12T08:48:08.271Z,2.78
2024-01-12T08:51:11.526Z,1.98
2024-01-12T08:54:14.222Z,1.25
2024-01-12T08:57:16.788Z,1.98
2024-01-12T09:00:19.417Z,0.77
2024-01-12T09:03:21.910Z,6.22
2024-01-12T09:06:25.249Z,1.97
2024-01-12T09:09:27.933Z,1.52
2024-01-12T09:12:30.473Z,2.78
2024-01-12T09:15:36.332Z,2.87
2024-01-12T09:18:39.117Z,1.35
2024-01-12T09:21:42.251Z,1.45
2024-01-12T09:24:44.720Z,3.83
2024-01-12T09:27:47.272Z,3.63
2024-01-12T09:30:49.824Z,1.15
2024-01-12T09:33:54.302Z,1.77
2024-01-12T09:36:56.862Z,3.13
2024-01-12T09:39:59.257Z,1.92
2024-01-12T09:43:02.334Z,1.58
2024-01-12T09:46:09.496Z,1.53
2024-01-12T09:49:12.006Z,0.98
2024-01-12T09:52:14.626Z,2.38
2024-01-12T09:55:17.047Z,2.28
2024-01-12T09:58:22.697Z,2.08
2024-01-12T10:01:25.377Z,4.03
2024-01-12T10:04:28.337Z,1.85
2024-01-12T10:07:31.077Z,5.20
2024-01-12T10:10:33.520Z,1.60
2024-01-12T10:13:35.994Z,5.68
2024-01-12T10:16:40.555Z,1.60
2024-01-12T10:19:43.781Z,1.30
2024-01-12T10:22:46.343Z,4.03
2024-01-12T10:26:10.692Z,2.17
2024-01-12T10:29:15.014Z,4.18
2024-01-12T10:32:21.018Z,0.82
2024-01-12T10:35:23.735Z,2.90
2024-01-12T10:38:30.158Z,1.67
2024-01-12T10:41:34.454Z,3.80
2024-01-12T10:44:40.375Z,1.55
2024-01-12T10:47:48.591Z,3.43
2024-01-12T10:51:00.928Z,1.35
2024-01-12T10:54:14.241Z,3.10
2024-01-12T10:57:17.743Z,1.90
2024-01-12T11:00:21.306Z,4.05
2024-01-12T11:03:25.087Z,1.90
2024-01-12T11:06:29.438Z,3.47
2024-01-12T11:09:32.012Z,1.67
2024-01-12T11:12:39.120Z,3.03
2024-01-12T11:15:42.141Z,3.08
2024-01-12T11:18:44.765Z,2.23
2024-01-12T11:21:47.252Z,5.07
2024-01-12T11:24:49.805Z,4.10
2024-01-12T11:27:53.201Z,2.95
2024-01-12T11:30:55.792Z,3.42
2024-01-12T11:34:00.633Z,1.55
2024-01-12T11:37:03.920Z,2.90
2024-01-12T11:40:11.987Z,3.47
2024-01-12T11:43:20.519Z,7.18
2024-01-12T11:46:25.232Z,2.20
2024-01-12T11:49:27.752Z,2.93
2024-01-12T11:52:30.250Z,3.25
2024-01-12T11:55:33.869Z,2.10
2024-01-12T11:58:38.344Z,1.80
2024-01-12T12:01:40.810Z,2.13
2024-01-12T12:04:43.786Z,6.15
2024-01-12T12:07:47.400Z,6.55
2024-01-12T12:10:49.828Z,5.30
2024-01-12T12:13:54.428Z,2.38
2024-01-12T12:16:56.826Z,1.23
2024-01-12T12:19:59.457Z,3.20
2024-01-12T12:23:01.972Z,4.00
2024-01-12T12:26:06.047Z,7.55
2024-01-12T12:29:10.526Z,3.85
2024-01-12T12:32:13.911Z,3.03
2024-01-12T12:35:20.877Z,2.25
2024-01-12T12:38:23.698Z,5.65
2024-01-12T12:41:26.214Z,3.17
2024-01-12T12:44:28.740Z,3.65
2024-01-12T12:47:32.083Z,6.45
2024-01-12T12:50:34.879Z,2.70
2024-01-12T12:53:37.328Z,2.05
2024-01-12T12:56:41.056Z,4.65
2024-01-12T12:59:44.911Z,5.93
2024-01-12T13:02:47.452Z,2.13
2024-01-12T13:05:49.943Z,5.70
2024-01-12T13:08:52.479Z,5.30
2024-01-12T13:11:55.215Z,2.83
2024-01-12T13:14:57.702Z,2.90
2024-01-12T13:18:00.506Z,2.28
2024-01-12T13:21:03.702Z,4.83
2024-01-12T13:24:06.547Z,4.03
2024-01-12T13:27:09.164Z,2.03
2024-01-12T13:30:12.281Z,3.13
2024-01-12T13:33:16.256Z,4.07
2024-01-12T13:36:19.556Z,5.00
2024-01-12T13:39:22.586Z,3.17
2024-01-12T13:42:25.388Z,5.17
2024-01-12T13:45:27.947Z,3.83
2024-01-12T13:48:31.195Z,6.93
2024-01-12T13:51:34.993Z,10.33
2024-01-12T13:54:37.528Z,5.00
2024-01-12T13:57:39.948Z,4.80
2024-01-12T14:00:42.363Z,5.22
2024-01-12T14:03:47.880Z,4.15
2024-01-12T14:06:50.555Z,4.60
2024-01-12T14:09:53.288Z,4.15
2024-01-12T14:12:55.779Z,4.27
2024-01-12T14:15:59.089Z,2.65
2024-01-12T14:19:01.690Z,11.27
2024-01-12T14:22:04.423Z,10.57
2024-01-12T14:25:07.596Z,62.20
2024-01-12T14:28:20.343Z,46.40
2024-01-12T14:31:31.253Z,11.27
2024-01-12T14:34:33.912Z,18.63
2024-01-12T14:37:36.459Z,10.70
2024-01-12T14:40:38.814Z,11.10
2024-01-12T14:43:41.216Z,12.70
2024-01-12T14:46:43.712Z,8.40
2024-01-12T14:49:47.048Z,37.63
2024-01-12T14:52:49.976Z,41.00
2024-01-12T14:55:52.510Z,15.57
2024-01-12T14:58:55.282Z,18.25
2024-01-12T15:01:57.750Z,13.32
2024-01-12T15:05:00.282Z,24.90
2024-01-12T15:08:04.613Z,17.75
2024-01-12T15:11:07.511Z,10.68
2024-01-12T15:14:10.349Z,13.70
2024-01-12T15:17:12.989Z,11.90
2024-01-12T15:20:16.006Z,10.07
2024-01-12T15:23:18.521Z,11.23
2024-01-12T15:26:20.914Z,9.73
2024-01-12T15:29:23.399Z,7.72
2024-01-12T15:32:25.945Z,9.80
2024-01-12T15:35:29.446Z,12.63
2024-01-12T15:38:32.255Z,8.07
2024-01-12T15:41:34.763Z,5.20
2024-01-12T15:44:37.227Z,4.40
2024-01-12T15:47:39.895Z,11.75
2024-01-12T15:50:43.120Z,13.90
2024-01-12T15:53:45.572Z,21.77
2024-01-12T15:56:48.156Z,28.70
2024-01-12T15:59:50.791Z,12.15
2024-01-12T16:02:53.302Z,26.88
2024-01-12T16:05:56.180Z,15.63
2024-01-12T16:08:58.759Z,41.05
2024-01-12T16:12:01.299Z,30.35
2024-01-12T16:15:07.496Z,14.60
2024-01-12T16:18:10.214Z,23.95
2024-01-12T16:21:31.614Z,39.63
2024-01-12T16:24:34.086Z,26.47
2024-01-12T16:27:36.501Z,24.33
2024-01-12T16:30:39.094Z,14.65
2024-01-12T16:33:41.685Z,15.80
2024-01-12T16:36:44.166Z,13.65
2024-01-12T16:39:46.610Z,11.32
2024-01-12T16:42:49.000Z,8.02
2024-01-12T16:45:51.414Z,14.23
2024-01-12T16:48:53.919Z,10.15
2024-01-12T16:51:56.363Z,12.57
2024-01-12T16:55:04.044Z,12.47
2024-01-12T16:58:06.693Z,27.77
2024-01-12T17:01:09.213Z,23.63
2024-01-12T17:04:11.777Z,24.50
2024-01-12T17:07:14.201Z,20.88
2024-01-12T17:10:16.803Z,24.50
2024-01-12T17:13:19.238Z,22.90
2024-01-12T17:16:35.083Z,10.47
2024-01-12T17:19:37.627Z,27.42
2024-01-12T17:22:40.123Z,18.08
2024-01-12T17:25:42.546Z,18.47
2024-01-12T17:28:44.924Z,38.13
2024-01-12T17:31:51.528Z,10.60
2024-01-12T17:34:54.270Z,11.77
2024-01-12T17:37:57.588Z,7.93
2024-01-12T17:41:00.530Z,7.93
2024-01-12T17:44:03.246Z,22.35
2024-01-12T17:47:05.697Z,12.47
2024-01-12T17:50:09.252Z,14.48
2024-01-12T17:53:11.688Z,12.05
2024-01-12T17:56:14.465Z,9.87
2024-01-12T17:59:16.907Z,5.78
2024-01-12T18:02:19.857Z,7.40
2024-01-12T18:05:22.665Z,13.60
2024-01-12T18:08:25.443Z,12.82
2024-01-12T18:11:27.991Z,14.75
2024-01-12T18:14:30.615Z,10.15
2024-01-12T18:17:33.334Z,8.93
2024-01-12T18:20:35.846Z,8.52
2024-01-12T18:23:38.258Z,26.08
2024-01-12T18:26:40.666Z,8.93
2024-01-12T18:29:43.857Z,9.27
2024-01-12T18:32:46.873Z,10.40
2024-01-12T18:35:50.194Z,11.18
2024-01-12T18:38:53.097Z,14.10
2024-01-12T18:41:55.843Z,13.18
2024-01-12T18:44:58.752Z,14.90
2024-01-12T18:48:01.737Z,14.20
2024-01-12T18:51:04.816Z,24.85
2024-01-12T18:54:10.296Z,38.35
2024-01-12T18:57:13.684Z,21.30
2024-01-12T19:00:16.732Z,20.50
2024-01-12T19:03:19.478Z,15.52
2024-01-12T19:06:22.141Z,23.55
2024-01-12T19:09:24.658Z,17.42
2024-01-12T19:12:27.364Z,20.67
2024-01-12T19:15:30.126Z,21.00
2024-01-12T19:18:32.749Z,26.03
2024-01-12T19:21:35.332Z,23.73
2024-01-12T19:24:42.667Z,18.55
2024-01-12T19:27:45.121Z,20.33
2024-01-12T19:30:47.524Z,14.32
2024-01-12T19:33:53.881Z,22.33
2024-01-12T19:36:56.419Z,21.38
2024-01-12T19:39:59.816Z,20.55
2024-01-12T19:43:02.261Z,22.80
2024-01-12T19:46:05.285Z,23.48
2024-01-12T19:49:07.867Z,12.57
2024-01-12T19:52:10.568Z,18.17
2024-01-12T19:55:13.884Z,30.15
2024-01-12T19:58:17.328Z,53.47
2024-01-12T20:01:19.999Z,51.40
2024-01-12T20:04:29.737Z,33.15
2024-01-12T20:07:40.245Z,35.22
2024-01-12T20:10:43.005Z,32.17
2024-01-12T20:13:45.933Z,26.27
2024-01-12T20:16:48.771Z,17.20
2024-01-12T20:19:51.996Z,22.00
2024-01-12T20:22:54.666Z,33.22
2024-01-12T20:25:57.092Z,25.85
2024-01-12T20:28:59.787Z,39.20
2024-01-12T20:32:02.752Z,31.65
2024-01-12T20:35:05.520Z,21.23
2024-01-12T20:38:07.972Z,25.42
2024-01-12T20:41:10.644Z,15.98
2024-01-12T20:44:13.930Z,32.72
2024-01-12T20:47:16.485Z,14.48
2024-01-12T20:50:18.948Z,23.53
2024-01-12T20:53:22.375Z,25.95
2024-01-12T20:56:24.910Z,22.98
2024-01-12T20:59:29.744Z,17.93
2024-01-12T21:02:33.865Z,17.65
2024-01-12T21:05:36.659Z,19.60
2024-01-12T21:08:39.278Z,21.77
2024-01-12T21:11:42.458Z,19.55
2024-01-12T21:14:45.021Z,18.75
2024-01-12T21:17:48.777Z,23.00
2024-01-12T21:20:51.756Z,16.43
2024-01-12T21:23:54.528Z,52.88
2024-01-12T21:26:57.070Z,35.38
2024-01-12T21:30:00.674Z,26.70
2024-01-12T21:33:03.500Z,23.30
2024-01-12T21:36:06.365Z,14.48
2024-01-12T21:39:10.209Z,14.35
2024-01-12T21:42:13.463Z,19.80
2024-01-12T21:45:16.651Z,13.38
2024-01-12T21:48:19.250Z,16.70
2024-01-12T21:51:21.831Z,18.27
2024-01-12T21:54:24.257Z,18.88
2024-01-12T21:57:27.241Z,19.90
2024-01-12T22:00:29.628Z,18.10
2024-01-12T22:03:32.213Z,21.23
2024-01-12T22:06:34.728Z,20.70
2024-01-12T22:09:37.238Z,24.10
2024-01-12T22:12:39.674Z,22.27
2024-01-12T22:15:42.135Z,23.63
2024-01-12T22:18:44.899Z,28.15
2024-01-12T22:21:47.473Z,26.70
2024-01-12T22:24:49.849Z,23.08
2024-01-12T22:27:52.281Z,24.50
2024-01-12T22:30:54.694Z,25.20
2024-01-12T22:33:57.258Z,22.27
2024-01-12T22:36:59.802Z,33.53
2024-01-12T22:40:02.608Z,23.15
2024-01-12T22:43:05.400Z,30.67
2024-01-12T22:46:07.951Z,54.30
2024-01-12T22:49:12.181Z,44.45
2024-01-12T22:52:14.949Z,28.80
2024-01-12T22:55:17.419Z,24.85
2024-01-12T22:58:20.505Z,25.30
2024-01-12T23:01:22.889Z,32.13
2024-01-12T23:04:25.325Z,25.63
2024-01-12T23:07:27.782Z,22.70
2024-01-12T23:10:30.207Z,25.05
2024-01-12T23:13:32.601Z,24.40
2024-01-12T23:16:35.025Z,21.45
2024-01-12T23:19:37.499Z,23.30
2024-01-12T23:22:43.332Z,27.93
2024-01-12T23:25:46.039Z,28.05
2024-01-12T23:28:48.625Z,29.98
2024-01-12T23:31:51.181Z,22.33
2024-01-12T23:34:53.804Z,26.50
2024-01-12T23:37:56.343Z,21.60
2024-01-12T23:40:58.730Z,29.83
2024-01-12T23:44:02.099Z,22.85
2024-01-12T23:47:04.762Z,28.02
2024-01-12T23:50:07.668Z,20.60
2024-01-12T23:53:10.158Z,31.50
2024-01-12T23:56:12.536Z,23.42
2024-01-12T23:59:14.989Z,21.02
